PWSweather.com
Personal Weather Stations
Station Observations
DEEPSOUTH
Waverley, InvercargillNZ 9810

WaverleyInvercargillNZ 9810

Lat: -46.3926834, Lon: 168.381112

Elevation: 72

Station Type: Davis VP2

http://www.deepsouthweather.co.nz/

Latest ConditionsUpdated 4:50:01 AM GMT+11:11 Sunday, Dec 21, 2014
Currently Today's Max Today's Min Today's Average
Temperature 53.4°F11.9°C 55.9°F13.3°C 52.0°F11.1°C 53.5°F11.9°C
Dew Point 51.4°F10.8°C 55.1°F12.8°C 50.3°F10.2°C 52.1°F11.2°C
Winds 3.0 mph W4.8 kmh W 7.0 mph WSW11.3 kmh WSW - 4.4 mph 7.1 kmh
Wind Gusts 5.0 mph8.0 kmh 18.0 mph29.0 kmh - -
Humidity 93% 97% 91% 95%
Pressure 29.75 in1007.5 mb 29.75 in1007.5 mb 29.68 in1005.1 mb -
Precipitation - 0.02 in0.5 mm - -
Hour Temp Dew Point Humidity Winds Wind Gusts Pressure Precip Precip Rate Daily Precip Total
04:50 AM 53.4°F11.9°C 51.4°F10.8°C 93% 3.0 mph W4.8 kmh W 5.0 mph8.0 kmh 29.75 in1007.5 mb 0.00 in0.0 mm 0.00 in/hr0.0 mm/hr 0.02 in0.5 mm
04:40 AM 53.4°F11.9°C 51.2°F10.7°C 92% 3.0 mph W4.8 kmh W 7.0 mph11.3 kmh 29.75 in1007.5 mb 0.00 in0.0 mm 0.00 in/hr0.0 mm/hr 0.02 in0.5 mm
04:30 AM 53.2°F11.8°C 50.7°F10.4°C 91% 3.0 mph WSW4.8 kmh WSW 8.0 mph12.9 kmh 29.75 in1007.5 mb 0.00 in0.0 mm 0.00 in/hr0.0 mm/hr 0.02 in0.5 mm
04:20 AM 52.9°F11.6°C 50.3°F10.2°C 91% 3.0 mph SW4.8 kmh SW 7.0 mph11.3 kmh 29.74 in1007.1 mb 0.00 in0.0 mm 0.00 in/hr0.0 mm/hr 0.02 in0.5 mm
04:10 AM 52.9°F11.6°C 50.6°F10.3°C 92% 4.0 mph SW6.4 kmh SW 10.0 mph16.1 kmh 29.74 in1007.1 mb 0.00 in0.0 mm 0.00 in/hr0.0 mm/hr 0.02 in0.5 mm
04:00 AM 53.1°F11.7°C 51.1°F10.6°C 93% 4.0 mph WSW6.4 kmh WSW 8.0 mph12.9 kmh 29.73 in1006.8 mb 0.00 in0.0 mm 0.00 in/hr0.0 mm/hr 0.02 in0.5 mm
03:50 AM 53.1°F11.7°C 51.4°F10.8°C 94% 4.0 mph WSW6.4 kmh WSW 10.0 mph16.1 kmh 29.73 in1006.8 mb 0.00 in0.0 mm 0.00 in/hr0.0 mm/hr 0.02 in0.5 mm
03:40 AM 52.9°F11.6°C 51.2°F10.7°C 94% 3.0 mph SW4.8 kmh SW 10.0 mph16.1 kmh 29.73 in1006.8 mb 0.00 in0.0 mm 0.00 in/hr0.0 mm/hr 0.02 in0.5 mm
03:30 AM 52.7°F11.5°C 51.0°F10.6°C 94% 4.0 mph SW6.4 kmh SW 10.0 mph16.1 kmh 29.73 in1006.8 mb 0.00 in0.0 mm 0.00 in/hr0.0 mm/hr 0.02 in0.5 mm
03:20 AM 52.5°F11.4°C 50.6°F10.3°C 93% 4.0 mph SW6.4 kmh SW 9.0 mph14.5 kmh 29.72 in1006.4 mb 0.00 in0.0 mm 0.00 in/hr0.0 mm/hr 0.02 in0.5 mm
03:10 AM 52.3°F11.3°C 50.4°F10.2°C 93% 4.0 mph SW6.4 kmh SW 8.0 mph12.9 kmh 29.72 in1006.4 mb 0.00 in0.0 mm 0.00 in/hr0.0 mm/hr 0.02 in0.5 mm
03:00 AM 52.3°F11.3°C 50.7°F10.4°C 94% 5.0 mph SW8.0 kmh SW 10.0 mph16.1 kmh 29.72 in1006.4 mb 0.00 in0.0 mm 0.00 in/hr0.0 mm/hr 0.02 in0.5 mm
02:50 AM 52.3°F11.3°C 50.7°F10.4°C 94% 5.0 mph SW8.0 kmh SW 10.0 mph16.1 kmh 29.72 in1006.4 mb 0.01 in0.3 mm 0.00 in/hr0.0 mm/hr 0.02 in0.5 mm
02:40 AM 52.2°F11.2°C 50.5°F10.3°C 94% 5.0 mph SW8.0 kmh SW 12.0 mph19.3 kmh 29.72 in1006.4 mb 0.01 in0.3 mm 0.00 in/hr0.0 mm/hr 0.02 in0.5 mm
02:30 AM 52.0°F11.1°C 50.6°F10.3°C 95% 5.0 mph SW8.0 kmh SW 9.0 mph14.5 kmh 29.71 in1006.1 mb 0.01 in0.3 mm 0.00 in/hr0.0 mm/hr 0.02 in0.5 mm
02:20 AM 52.0°F11.1°C 50.9°F10.5°C 96% 5.0 mph SW8.0 kmh SW 14.0 mph22.5 kmh 29.72 in1006.4 mb 0.01 in0.3 mm 0.00 in/hr0.0 mm/hr 0.02 in0.5 mm
02:10 AM 52.2°F11.2°C 51.1°F10.6°C 96% 5.0 mph SW8.0 kmh SW 12.0 mph19.3 kmh 29.71 in1006.1 mb 0.01 in0.3 mm 0.00 in/hr0.0 mm/hr 0.02 in0.5 mm
02:00 AM 52.5°F11.4°C 51.7°F10.9°C 97% 6.0 mph SW9.7 kmh SW 14.0 mph22.5 kmh 29.71 in1006.1 mb 0.01 in0.3 mm 0.01 in/hr0.3 mm/hr 0.02 in0.5 mm
01:50 AM 53.1°F11.7°C 52.2°F11.2°C 97% 6.0 mph SW9.7 kmh SW 12.0 mph19.3 kmh 29.71 in1006.1 mb 0.00 in0.0 mm 0.00 in/hr0.0 mm/hr 0.02 in0.5 mm
01:40 AM 53.2°F11.8°C 52.4°F11.3°C 97% 6.0 mph SW9.7 kmh SW 13.0 mph20.9 kmh 29.70 in1005.8 mb 0.00 in0.0 mm 0.00 in/hr0.0 mm/hr 0.02 in0.5 mm
01:30 AM 53.4°F11.9°C 52.6°F11.4°C 97% 6.0 mph SW9.7 kmh SW 14.0 mph22.5 kmh 29.69 in1005.4 mb 0.00 in0.0 mm 0.00 in/hr0.0 mm/hr 0.02 in0.5 mm
01:20 AM 53.8°F12.1°C 52.9°F11.6°C 97% 6.0 mph WSW9.7 kmh WSW 15.0 mph24.1 kmh 29.70 in1005.8 mb 0.00 in0.0 mm 0.00 in/hr0.0 mm/hr 0.02 in0.5 mm
01:10 AM 54.0°F12.2°C 53.1°F11.7°C 97% 6.0 mph WSW9.7 kmh WSW 14.0 mph22.5 kmh 29.69 in1005.4 mb 0.00 in0.0 mm 0.00 in/hr0.0 mm/hr 0.02 in0.5 mm
01:00 AM 54.3°F12.4°C 53.5°F11.9°C 97% 7.0 mph WSW11.3 kmh WSW 18.0 mph29.0 kmh 29.69 in1005.4 mb 0.00 in0.0 mm 0.00 in/hr0.0 mm/hr 0.02 in0.5 mm
12:50 AM 55.0°F12.8°C 54.2°F12.3°C 97% 6.0 mph WSW9.7 kmh WSW 13.0 mph20.9 kmh 29.69 in1005.4 mb 0.00 in0.0 mm 0.00 in/hr0.0 mm/hr 0.02 in0.5 mm
12:40 AM 55.6°F13.1°C 54.7°F12.6°C 97% 4.0 mph WSW6.4 kmh WSW 7.0 mph11.3 kmh 29.68 in1005.1 mb 0.00 in0.0 mm 0.00 in/hr0.0 mm/hr 0.02 in0.5 mm
12:30 AM 55.8°F13.2°C 54.9°F12.7°C 97% 3.0 mph W4.8 kmh W 7.0 mph11.3 kmh 29.68 in1005.1 mb 0.02 in0.5 mm 0.00 in/hr0.0 mm/hr 0.02 in0.5 mm
12:20 AM 55.8°F13.2°C 54.9°F12.7°C 97% 2.0 mph W3.2 kmh W 6.0 mph9.7 kmh 29.68 in1005.1 mb 0.02 in0.5 mm 0.00 in/hr0.0 mm/hr 0.02 in0.5 mm
12:10 AM 55.9°F13.3°C 55.1°F12.8°C 97% 3.0 mph W4.8 kmh W 5.0 mph8.0 kmh 29.68 in1005.1 mb 0.02 in0.5 mm 0.00 in/hr0.0 mm/hr 0.02 in0.5 mm
12:00 AM 55.9°F13.3°C 55.1°F12.8°C 97% 2.0 mph W3.2 kmh W 5.0 mph8.0 kmh 29.68 in1005.1 mb 0.02 in0.5 mm 0.00 in/hr0.0 mm/hr 0.02 in0.5 mm